Time;durP1;ratioP1;P1;durP2;ratioP2;P2;SDS_P1;SDS_P2;PMS_P1;PMS_P2;Temp;Humidity;BMP_temperature;BMP_pressure;BME280_temperature;BME280_humidity;BME280_pressure;Samples;Min_cycle;Max_cycle;Signal;HPM_P1;HPM_P2
2023/06/16 00:01:04;;;;;;;4.57;2.28;;;24.00;48.70;;;;;;5072286;28;20303;-68
2023/06/16 00:03:34;;;;;;;3.30;1.95;;;24.00;48.70;;;;;;5072853;28;20098;-69
2023/06/16 00:06:04;;;;;;;4.90;2.60;;;24.00;48.80;;;;;;5073270;28;20471;-69
2023/06/16 00:08:31;;;;;;;6.40;2.30;;;24.00;49.60;;;;;;5072409;28;20036;-69
2023/06/16 00:10:57;;;;;;;3.73;2.00;;;24.00;48.90;;;;;;5059231;28;20093;-69
2023/06/16 00:13:23;;;;;;;2.85;1.90;;;24.00;49.00;;;;;;5072755;28;20295;-69
2023/06/16 00:15:48;;;;;;;4.00;2.10;;;24.00;49.00;;;;;;5073299;28;20567;-69
2023/06/16 00:18:14;;;;;;;3.67;2.30;;;24.00;49.00;;;;;;5072634;28;20461;-69
2023/06/16 00:20:41;;;;;;;4.38;2.08;;;24.00;49.00;;;;;;5072238;28;20040;-69
2023/06/16 00:23:09;;;;;;;3.53;2.30;;;23.90;49.10;;;;;;5073164;28;20454;-69
2023/06/16 00:25:35;;;;;;;5.22;2.30;;;23.90;49.10;;;;;;5071309;28;20116;-69
2023/06/16 00:28:00;;;;;;;3.85;2.28;;;24.00;49.20;;;;;;5071923;28;20143;-69
2023/06/16 00:30:26;;;;;;;4.00;2.15;;;24.00;49.20;;;;;;5071747;28;20498;-69
2023/06/16 00:32:51;;;;;;;4.47;1.83;;;24.00;49.20;;;;;;5071986;28;20393;-69
2023/06/16 00:35:17;;;;;;;3.30;1.90;;;23.90;49.20;;;;;;5072747;28;20037;-69
2023/06/16 00:37:42;;;;;;;3.15;1.90;;;23.90;49.20;;;;;;5072613;28;20047;-69
2023/06/16 00:40:09;;;;;;;3.72;2.20;;;23.90;49.30;;;;;;5072783;28;20040;-69
2023/06/16 00:42:34;;;;;;;3.70;2.33;;;23.90;49.30;;;;;;5073333;28;20040;-69
2023/06/16 00:45:00;;;;;;;3.05;1.83;;;23.90;49.40;;;;;;5072111;28;20048;-69
2023/06/16 00:47:26;;;;;;;3.38;2.10;;;23.90;49.50;;;;;;5071573;28;20048;-69
2023/06/16 00:49:51;;;;;;;3.67;2.15;;;23.90;49.40;;;;;;5071708;28;20059;-69
2023/06/16 00:52:17;;;;;;;4.22;2.10;;;23.90;49.50;;;;;;5071944;28;20043;-68
2023/06/16 00:54:43;;;;;;;4.00;2.20;;;23.90;49.50;;;;;;5071830;28;20086;-69
2023/06/16 00:57:08;;;;;;;5.47;2.17;;;23.90;49.50;;;;;;5054916;28;20045;-69
2023/06/16 00:59:34;;;;;;;3.20;1.92;;;23.90;49.50;;;;;;5071024;28;20361;-69
2023/06/16 01:01:59;;;;;;;3.97;2.00;;;23.90;49.50;;;;;;5054506;28;20182;-69
2023/06/16 01:04:25;;;;;;;3.47;2.08;;;23.90;49.60;;;;;;5072761;28;20119;-68
2023/06/16 01:07:04;;;;;;;3.03;2.05;;;23.90;49.60;;;;;;5070984;28;20044;-69
2023/06/16 01:09:54;;;;;;;4.15;2.08;;;23.90;49.60;;;;;;5071753;28;20063;-69
2023/06/16 01:12:32;;;;;;;3.53;2.13;;;23.90;49.70;;;;;;5040837;28;20059;-69
2023/06/16 01:15:09;;;;;;;4.00;2.00;;;23.90;49.70;;;;;;5070313;28;20565;-69
2023/06/16 01:17:43;;;;;;;3.47;1.93;;;23.90;49.70;;;;;;5039644;28;20040;-69
2023/06/16 01:20:10;;;;;;;4.30;1.90;;;23.90;49.70;;;;;;5070364;28;20044;-69
2023/06/16 01:22:51;;;;;;;3.23;2.00;;;23.80;50.40;;;;;;5071308;28;20087;-69
2023/06/16 01:25:17;;;;;;;3.47;1.95;;;23.80;49.80;;;;;;5071375;28;20098;-69
2023/06/16 01:27:47;;;;;;;3.80;1.90;;;23.80;49.80;;;;;;5037486;28;20087;-69
2023/06/16 01:30:14;;;;;;;3.80;2.05;;;23.90;49.80;;;;;;5054921;28;20064;-69
2023/06/16 01:32:40;;;;;;;3.30;1.90;;;23.80;49.80;;;;;;5054540;28;20400;-69
2023/06/16 01:35:06;;;;;;;4.78;2.47;;;23.80;49.80;;;;;;5049943;28;20123;-69
2023/06/16 01:37:31;;;;;;;2.45;1.80;;;23.80;49.80;;;;;;5034619;28;20090;-69
2023/06/16 01:39:57;;;;;;;4.43;2.00;;;23.80;49.90;;;;;;5051069;28;20051;-69
2023/06/16 01:42:23;;;;;;;3.03;2.08;;;23.80;49.90;;;;;;5036032;28;20083;-69
2023/06/16 01:44:48;;;;;;;4.40;2.08;;;23.80;50.00;;;;;;5063269;28;20080;-69
2023/06/16 01:47:14;;;;;;;3.25;2.15;;;23.80;49.90;;;;;;5060760;28;20044;-69
2023/06/16 01:49:39;;;;;;;2.72;1.80;;;23.80;50.00;;;;;;5078176;28;20478;-69
2023/06/16 01:52:06;;;;;;;3.13;2.10;;;23.80;50.00;;;;;;5077666;28;20040;-69
2023/06/16 01:54:32;;;;;;;3.70;2.28;;;23.80;50.00;;;;;;5077468;28;20048;-69
2023/06/16 01:56:57;;;;;;;2.70;1.90;;;23.80;50.00;;;;;;5078221;28;20039;-69
2023/06/16 01:59:23;;;;;;;3.72;2.15;;;23.80;50.10;;;;;;5078874;28;20177;-69
2023/06/16 02:01:51;;;;;;;4.00;2.10;;;23.80;50.10;;;;;;5077067;28;20512;-69
2023/06/16 02:04:20;;;;;;;3.67;2.10;;;23.70;50.10;;;;;;5059623;28;20055;-69
2023/06/16 02:06:56;;;;;;;2.90;1.92;;;23.80;50.10;;;;;;5040264;28;20045;-69
2023/06/16 02:09:21;;;;;;;3.25;2.15;;;23.70;50.10;;;;;;5040376;28;20048;-69
2023/06/16 02:11:47;;;;;;;3.28;2.00;;;23.80;50.10;;;;;;5061219;28;20040;-69
2023/06/16 02:14:12;;;;;;;2.50;1.80;;;23.80;50.20;;;;;;5077201;28;20048;-69
2023/06/16 02:16:39;;;;;;;3.42;1.77;;;23.70;50.10;;;;;;5076560;28;20044;-69
2023/06/16 02:19:05;;;;;;;5.60;2.20;;;23.80;50.10;;;;;;5078226;28;20044;-68
2023/06/16 02:21:31;;;;;;;4.40;2.05;;;23.70;50.10;;;;;;5077587;28;20059;-69
2023/06/16 02:23:56;;;;;;;3.45;1.88;;;23.70;50.20;;;;;;5076483;28;20048;-69
2023/06/16 02:26:22;;;;;;;3.63;1.95;;;23.70;50.20;;;;;;5077134;28;20045;-69
2023/06/16 02:28:48;;;;;;;3.58;1.90;;;23.70;50.20;;;;;;5078569;28;20061;-69
2023/06/16 02:31:17;;;;;;;2.85;2.05;;;23.70;50.20;;;;;;5077771;28;20048;-69
2023/06/16 02:33:44;;;;;;;3.75;2.20;;;23.70;50.30;;;;;;5077157;28;20044;-68
2023/06/16 02:36:10;;;;;;;3.25;2.30;;;23.70;50.20;;;;;;5078375;28;20036;-69
2023/06/16 02:38:35;;;;;;;3.72;1.98;;;23.70;50.30;;;;;;5077681;28;20454;-69
2023/06/16 02:41:01;;;;;;;4.10;2.20;;;23.70;50.30;;;;;;5076781;28;20041;-69
2023/06/16 02:43:26;;;;;;;2.90;2.03;;;23.70;50.30;;;;;;5078810;28;20537;-69
2023/06/16 02:45:53;;;;;;;3.53;1.92;;;23.70;50.30;;;;;;5076336;28;20049;-68
2023/06/16 02:48:18;;;;;;;3.70;1.95;;;23.70;50.30;;;;;;5078052;28;20133;-69
2023/06/16 02:50:44;;;;;;;3.15;1.70;;;23.70;50.40;;;;;;5077037;28;20082;-69
2023/06/16 02:53:09;;;;;;;2.50;1.63;;;23.70;50.40;;;;;;5077629;28;20040;-69
2023/06/16 02:55:35;;;;;;;2.75;1.83;;;23.70;50.40;;;;;;5073213;28;20045;-68
2023/06/16 02:58:01;;;;;;;2.75;1.80;;;23.70;50.40;;;;;;5073626;28;20486;-69
2023/06/16 03:00:27;;;;;;;2.92;2.08;;;23.70;50.40;;;;;;5074391;28;20105;-69
2023/06/16 03:02:52;;;;;;;2.90;1.85;;;23.70;50.40;;;;;;5073761;28;20048;-68
2023/06/16 03:05:18;;;;;;;3.45;2.00;;;23.70;50.40;;;;;;5072606;28;20561;-69
2023/06/16 03:07:44;;;;;;;3.40;1.95;;;23.70;50.40;;;;;;5075192;28;20039;-69
2023/06/16 03:10:11;;;;;;;3.40;2.15;;;23.70;50.50;;;;;;5073674;28;20075;-69
2023/06/16 03:12:36;;;;;;;3.03;2.05;;;23.70;50.40;;;;;;5074227;28;20044;-69
2023/06/16 03:15:02;;;;;;;3.60;1.98;;;23.70;50.50;;;;;;5074661;28;20055;-69
2023/06/16 03:17:28;;;;;;;3.08;2.10;;;23.70;50.50;;;;;;5073428;28;20407;-69
2023/06/16 03:19:53;;;;;;;4.40;2.22;;;23.60;50.40;;;;;;5073771;28;20040;-69
2023/06/16 03:22:19;;;;;;;4.82;2.30;;;23.70;50.50;;;;;;5073185;28;20423;-69
2023/06/16 03:24:44;;;;;;;3.90;2.25;;;23.60;50.50;;;;;;5072736;28;20048;-69
2023/06/16 03:27:10;;;;;;;3.28;2.08;;;23.60;50.50;;;;;;5072074;28;20043;-69
2023/06/16 03:29:39;;;;;;;2.80;2.00;;;23.70;50.60;;;;;;5074764;28;20048;-69
2023/06/16 03:32:05;;;;;;;3.08;1.95;;;23.60;50.50;;;;;;5073986;28;20106;-69
2023/06/16 03:34:31;;;;;;;3.13;2.20;;;23.60;50.50;;;;;;5072630;28;20771;-69
2023/06/16 03:36:57;;;;;;;3.22;2.10;;;23.60;50.60;;;;;;5074030;28;20102;-69
2023/06/16 03:39:22;;;;;;;3.03;2.10;;;23.60;50.60;;;;;;5074632;28;20539;-69
2023/06/16 03:41:48;;;;;;;3.80;2.08;;;23.60;50.60;;;;;;5072299;28;20033;-69
2023/06/16 03:44:13;;;;;;;3.30;1.92;;;23.60;50.60;;;;;;5072831;28;20071;-69
2023/06/16 03:46:39;;;;;;;3.55;2.20;;;23.60;50.70;;;;;;5074253;28;20036;-70
2023/06/16 03:49:07;;;;;;;3.75;2.00;;;23.60;50.70;;;;;;5073109;28;20083;-70
2023/06/16 03:51:33;;;;;;;3.10;2.00;;;23.60;50.70;;;;;;5074329;28;20529;-70
2023/06/16 03:53:59;;;;;;;3.67;2.20;;;23.60;50.70;;;;;;5073840;28;20055;-69
2023/06/16 03:56:24;;;;;;;2.90;1.92;;;23.60;50.70;;;;;;5073388;28;20070;-69
2023/06/16 03:58:50;;;;;;;2.58;1.63;;;23.50;50.70;;;;;;5074041;28;20044;-69
2023/06/16 04:01:16;;;;;;;3.85;2.33;;;23.60;50.70;;;;;;5066864;28;20037;-68
2023/06/16 04:03:41;;;;;;;3.33;2.00;;;23.50;50.70;;;;;;5071430;28;20032;-69
2023/06/16 04:06:07;;;;;;;2.90;1.90;;;23.60;50.80;;;;;;5072584;28;20039;-69
2023/06/16 04:08:32;;;;;;;3.05;1.95;;;23.50;50.70;;;;;;5072903;28;20050;-69
2023/06/16 04:10:58;;;;;;;3.55;1.83;;;23.50;50.70;;;;;;5072758;28;20123;-69
2023/06/16 04:13:26;;;;;;;3.38;2.10;;;23.60;50.80;;;;;;5073829;28;20047;-69
2023/06/16 04:15:52;;;;;;;3.42;2.15;;;23.60;50.80;;;;;;5072717;28;20037;-69
2023/06/16 04:18:17;;;;;;;3.17;1.90;;;23.60;50.80;;;;;;5073171;28;20050;-69
2023/06/16 04:20:43;;;;;;;3.92;2.03;;;23.50;50.80;;;;;;5073302;28;20384;-69
2023/06/16 04:23:09;;;;;;;2.67;1.70;;;23.50;50.80;;;;;;5071310;28;20113;-69
2023/06/16 04:25:35;;;;;;;4.75;2.10;;;23.50;50.80;;;;;;5073423;28;20098;-69
2023/06/16 04:28:01;;;;;;;3.70;2.17;;;23.50;50.90;;;;;;5071880;28;20132;-69
2023/06/16 04:30:30;;;;;;;3.70;2.10;;;23.50;50.90;;;;;;5072295;28;20048;-69
2023/06/16 04:32:58;;;;;;;2.67;1.83;;;23.60;51.00;;;;;;5072955;28;20484;-69
2023/06/16 04:35:27;;;;;;;2.83;1.98;;;23.50;51.00;;;;;;5072361;28;20499;-69
2023/06/16 04:37:56;;;;;;;3.40;1.95;;;23.60;51.00;;;;;;5072505;28;20041;-69
2023/06/16 04:40:26;;;;;;;2.88;2.13;;;23.60;51.00;;;;;;5073209;28;20040;-69
2023/06/16 04:42:51;;;;;;;3.30;2.25;;;23.50;51.00;;;;;;5073321;28;20041;-69
2023/06/16 04:45:17;;;;;;;2.67;2.00;;;23.60;51.10;;;;;;5072368;28;20046;-69
2023/06/16 04:47:43;;;;;;;2.75;2.00;;;23.60;51.10;;;;;;5071527;28;20041;-69
2023/06/16 04:50:09;;;;;;;2.55;1.70;;;23.50;51.00;;;;;;5073307;28;20040;-69
2023/06/16 04:52:39;;;;;;;2.97;2.03;;;23.60;51.10;;;;;;5072086;28;20054;-69
2023/06/16 04:55:05;;;;;;;3.05;1.98;;;23.60;51.10;;;;;;5071764;28;20044;-69
2023/06/16 04:57:34;;;;;;;3.78;2.10;;;23.60;51.10;;;;;;5072681;28;20123;-70
2023/06/16 05:00:01;;;;;;;3.20;2.03;;;23.60;51.10;;;;;;5072017;28;20098;-69
2023/06/16 05:02:26;;;;;;;3.35;2.08;;;23.60;51.10;;;;;;5071612;28;20076;-69
2023/06/16 05:04:52;;;;;;;3.47;1.80;;;23.60;51.10;;;;;;5056249;28;20071;-70
2023/06/16 05:07:18;;;;;;;2.70;1.95;;;23.60;51.10;;;;;;5066312;28;20116;-70
2023/06/16 05:09:45;;;;;;;3.13;2.00;;;23.60;51.90;;;;;;5072874;28;20500;-69
2023/06/16 05:12:10;;;;;;;2.97;1.80;;;23.60;51.10;;;;;;5070321;28;20044;-69
2023/06/16 05:14:36;;;;;;;3.28;2.20;;;23.60;51.20;;;;;;5071446;28;20051;-69
2023/06/16 05:17:02;;;;;;;4.57;2.40;;;23.60;51.20;;;;;;5070711;28;20032;-70
2023/06/16 05:19:29;;;;;;;3.35;1.90;;;23.60;51.10;;;;;;5070475;28;20040;-69
2023/06/16 05:21:55;;;;;;;2.88;1.90;;;23.60;51.10;;;;;;5071256;28;20040;-69
2023/06/16 05:24:20;;;;;;;2.70;1.98;;;23.60;51.20;;;;;;5072431;28;20041;-69
2023/06/16 05:26:46;;;;;;;3.88;2.17;;;23.60;51.20;;;;;;5070705;28;20048;-69
2023/06/16 05:29:11;;;;;;;3.00;2.13;;;23.60;51.90;;;;;;5050865;28;20063;-72
2023/06/16 05:31:37;;;;;;;4.32;2.63;;;23.60;51.20;;;;;;5070478;28;20041;-68
2023/06/16 05:34:02;;;;;;;10.00;5.60;;;23.60;51.20;;;;;;5050303;28;20045;-69
2023/06/16 05:36:34;;;;;;;10.73;5.70;;;23.50;50.90;;;;;;5058979;28;20041;-68
2023/06/16 05:39:00;;;;;;;9.02;5.18;;;23.40;50.80;;;;;;5072118;28;20059;-68
2023/06/16 05:41:27;;;;;;;7.55;4.80;;;23.30;51.10;;;;;;5071785;28;20396;-68
2023/06/16 05:43:54;;;;;;;9.85;6.55;;;23.30;51.50;;;;;;5071316;28;20048;-69
2023/06/16 05:46:19;;;;;;;9.38;6.10;;;23.20;51.60;;;;;;5070505;28;20040;-68
2023/06/16 05:48:45;;;;;;;8.95;5.82;;;23.10;51.80;;;;;;5071550;28;20062;-68
2023/06/16 05:51:11;;;;;;;9.02;6.03;;;23.10;52.10;;;;;;5072110;28;20033;-68
2023/06/16 05:53:36;;;;;;;7.88;5.75;;;23.00;52.30;;;;;;5072421;28;20048;-68
2023/06/16 05:56:02;;;;;;;8.20;6.00;;;22.90;52.50;;;;;;5071152;28;20400;-68
2023/06/16 05:58:27;;;;;;;8.48;5.28;;;22.80;52.80;;;;;;5071002;28;20072;-68
2023/06/16 06:00:53;;;;;;;6.85;5.57;;;22.80;53.00;;;;;;5071169;28;20044;-63
2023/06/16 06:03:18;;;;;;;7.75;5.32;;;22.80;53.20;;;;;;5071034;28;20139;-68
2023/06/16 06:05:44;;;;;;;7.75;5.07;;;22.70;53.30;;;;;;5072045;28;20037;-69
2023/06/16 06:08:10;;;;;;;7.35;4.65;;;22.80;53.50;;;;;;5069767;28;20079;-71
2023/06/16 06:10:35;;;;;;;7.47;4.35;;;22.80;53.40;;;;;;5070891;28;20484;-73
2023/06/16 06:13:04;;;;;;;8.07;4.43;;;22.80;53.40;;;;;;5071943;28;20076;-72
2023/06/16 06:15:30;;;;;;;6.88;3.65;;;22.90;53.60;;;;;;5071451;28;20087;-69
2023/06/16 06:17:55;;;;;;;8.15;4.00;;;23.00;53.60;;;;;;5071916;28;20076;-70
2023/06/16 06:20:21;;;;;;;10.80;4.15;;;23.00;53.50;;;;;;5071561;28;20040;-68
2023/06/16 06:22:46;;;;;;;5.65;4.05;;;23.00;53.50;;;;;;5071035;28;20480;-71
2023/06/16 06:25:13;;;;;;;6.05;4.03;;;23.10;53.50;;;;;;5071994;28;20565;-70
2023/06/16 06:27:39;;;;;;;6.97;3.80;;;23.10;53.40;;;;;;5071975;28;20049;-71
2023/06/16 06:30:06;;;;;;;5.88;3.80;;;23.10;53.30;;;;;;5072905;28;20052;-69
2023/06/16 06:32:31;;;;;;;8.82;4.47;;;23.20;53.30;;;;;;5075616;28;20044;-70
2023/06/16 06:34:57;;;;;;;8.60;3.90;;;23.20;53.40;;;;;;5074115;28;20045;-70
2023/06/16 06:37:29;;;;;;;5.47;3.90;;;23.20;53.40;;;;;;5073413;28;20488;-70
2023/06/16 06:39:55;;;;;;;9.35;4.32;;;23.20;53.50;;;;;;5075723;28;20072;-73
2023/06/16 06:42:21;;;;;;;5.68;3.92;;;23.20;53.60;;;;;;5074062;28;20052;-72
2023/06/16 06:44:47;;;;;;;7.03;3.85;;;23.20;53.60;;;;;;5072825;28;20043;-67
2023/06/16 06:47:12;;;;;;;7.78;4.63;;;23.30;53.70;;;;;;5073975;28;20565;-70
2023/06/16 06:49:38;;;;;;;7.28;4.25;;;23.30;53.60;;;;;;5073482;28;20049;-70
2023/06/16 06:52:04;;;;;;;7.10;4.75;;;23.30;53.70;;;;;;5073753;28;20037;-69
2023/06/16 06:54:29;;;;;;;8.25;4.65;;;23.30;53.70;;;;;;5074597;28;20408;-69
2023/06/16 06:56:55;;;;;;;5.35;3.85;;;23.30;53.70;;;;;;5074244;28;20044;-70
2023/06/16 06:59:20;;;;;;;7.50;4.43;;;23.30;53.70;;;;;;5072434;28;20044;-70
2023/06/16 07:01:46;;;;;;;7.50;4.65;;;23.40;53.80;;;;;;5073388;28;20044;-69
2023/06/16 07:04:11;;;;;;;7.63;4.32;;;23.40;53.90;;;;;;5074229;28;20090;-69
2023/06/16 07:06:37;;;;;;;8.07;4.30;;;23.30;53.80;;;;;;5072876;28;20041;-70
2023/06/16 07:09:03;;;;;;;7.00;4.22;;;23.30;53.80;;;;;;5074693;28;20047;-70
2023/06/16 07:11:28;;;;;;;7.35;4.22;;;23.40;53.80;;;;;;5079604;28;20048;-71
2023/06/16 07:13:54;;;;;;;7.68;4.00;;;23.40;53.70;;;;;;5095276;28;20487;-68
2023/06/16 07:16:19;;;;;;;5.68;4.15;;;23.40;53.70;;;;;;5088364;28;20495;-67
2023/06/16 07:18:45;;;;;;;7.40;3.95;;;23.40;53.50;;;;;;5073857;28;20036;-67
2023/06/16 07:21:11;;;;;;;6.93;4.25;;;23.30;53.30;;;;;;5074138;28;20052;-68
2023/06/16 07:23:36;;;;;;;5.43;3.70;;;23.40;53.20;;;;;;5074585;28;20563;-68
2023/06/16 07:26:02;;;;;;;6.40;4.35;;;23.40;53.10;;;;;;5072447;28;20491;-68
2023/06/16 07:28:28;;;;;;;5.15;3.83;;;23.40;53.00;;;;;;5073076;28;20400;-68
2023/06/16 07:30:54;;;;;;;8.02;4.22;;;23.40;53.00;;;;;;5073046;28;20491;-67
2023/06/16 07:33:21;;;;;;;6.80;4.72;;;23.40;53.00;;;;;;5072018;28;20131;-68
2023/06/16 07:35:47;;;;;;;6.78;3.95;;;23.40;53.60;;;;;;5074490;28;20462;-76
2023/06/16 07:38:14;;;;;;;7.22;4.38;;;23.40;52.80;;;;;;5073121;28;20044;-67
2023/06/16 07:40:40;;;;;;;10.02;4.80;;;23.40;52.80;;;;;;5071930;28;20063;-67
2023/06/16 07:43:05;;;;;;;8.45;4.50;;;23.40;52.80;;;;;;5072732;28;20032;-68
2023/06/16 07:45:33;;;;;;;6.90;4.60;;;23.40;53.10;;;;;;5073079;28;20056;-67
2023/06/16 07:47:59;;;;;;;10.23;4.85;;;23.40;53.30;;;;;;5073120;28;20047;-68
2023/06/16 07:50:24;;;;;;;5.93;4.05;;;23.40;53.30;;;;;;5072606;28;20120;-65
2023/06/16 07:52:51;;;;;;;6.15;4.40;;;23.40;53.20;;;;;;5074078;28;20119;-67
2023/06/16 07:55:16;;;;;;;6.57;4.50;;;23.40;53.10;;;;;;5071912;28;20265;-67
2023/06/16 07:57:42;;;;;;;8.10;4.57;;;23.40;53.10;;;;;;5073979;28;20086;-67
2023/06/16 08:00:11;;;;;;;10.75;5.13;;;23.40;53.00;;;;;;5072407;28;20052;-67
2023/06/16 08:02:37;;;;;;;7.78;5.05;;;23.40;53.00;;;;;;5071702;28;20044;-67
2023/06/16 08:05:03;;;;;;;8.30;4.80;;;23.40;52.90;;;;;;5073443;28;20484;-67
2023/06/16 08:07:29;;;;;;;5.90;4.53;;;23.40;52.80;;;;;;5072460;28;20047;-67
2023/06/16 08:09:54;;;;;;;6.30;4.38;;;23.50;52.80;;;;;;5072065;28;20036;-67
2023/06/16 08:12:20;;;;;;;7.22;4.82;;;23.40;52.70;;;;;;5069183;28;20492;-67
2023/06/16 08:14:45;;;;;;;6.40;4.40;;;23.40;52.70;;;;;;5068385;28;20040;-67
2023/06/16 08:17:11;;;;;;;8.77;4.43;;;23.40;52.60;;;;;;5071584;28;20119;-66
2023/06/16 08:19:37;;;;;;;7.45;4.68;;;23.40;52.50;;;;;;5072814;28;20047;-66
2023/06/16 08:22:04;;;;;;;7.15;4.20;;;23.40;52.40;;;;;;5071830;28;20036;-67
2023/06/16 08:24:30;;;;;;;6.27;4.40;;;23.40;52.40;;;;;;5073375;28;20040;-66
2023/06/16 08:26:56;;;;;;;7.13;4.78;;;23.40;52.40;;;;;;5072824;28;20294;-66
2023/06/16 08:29:21;;;;;;;5.45;3.85;;;23.50;52.40;;;;;;5071981;28;20049;-67
2023/06/16 08:31:47;;;;;;;7.28;4.90;;;23.40;52.30;;;;;;5073174;28;20044;-66
2023/06/16 08:34:12;;;;;;;8.02;4.43;;;23.40;52.30;;;;;;5072962;28;20120;-62
2023/06/16 08:36:38;;;;;;;7.70;4.72;;;23.50;52.30;;;;;;5072597;28;20041;-67
2023/06/16 08:39:06;;;;;;;5.63;4.18;;;23.50;52.30;;;;;;5071826;28;20435;-67
2023/06/16 08:41:32;;;;;;;6.18;3.88;;;23.50;52.30;;;;;;5073303;28;20079;-67
2023/06/16 08:43:57;;;;;;;6.00;4.25;;;23.50;52.30;;;;;;5054533;28;20080;-67
2023/06/16 08:46:23;;;;;;;6.88;4.55;;;23.50;52.30;;;;;;5055344;28;20044;-66
2023/06/16 08:48:49;;;;;;;6.78;4.15;;;23.50;52.20;;;;;;5071761;28;20060;-66
2023/06/16 08:51:14;;;;;;;5.70;4.22;;;23.50;52.20;;;;;;5070458;28;20032;-67
2023/06/16 08:53:40;;;;;;;7.80;4.50;;;23.50;52.10;;;;;;5054487;28;20049;-66
2023/06/16 08:56:07;;;;;;;6.00;3.88;;;23.50;52.10;;;;;;5054913;28;20041;-66
2023/06/16 08:58:35;;;;;;;6.78;4.25;;;23.50;52.10;;;;;;5050880;28;20044;-70
2023/06/16 09:01:02;;;;;;;20.55;5.20;;;23.50;52.20;;;;;;5051576;28;20115;-68
2023/06/16 09:03:32;;;;;;;6.88;4.47;;;23.50;52.10;;;;;;5086430;28;20055;-66
2023/06/16 09:06:01;;;;;;;6.57;4.28;;;23.50;52.00;;;;;;5054410;28;20127;-65
2023/06/16 09:08:27;;;;;;;8.32;4.38;;;23.60;52.00;;;;;;5072970;28;20499;-63
2023/06/16 09:10:55;;;;;;;9.68;4.65;;;23.50;52.00;;;;;;5072677;28;20044;-64
2023/06/16 09:13:21;;;;;;;10.38;4.63;;;23.50;52.00;;;;;;5069136;28;20060;-64
2023/06/16 09:15:49;;;;;;;10.52;4.65;;;23.60;52.10;;;;;;5071201;28;20476;-67
2023/06/16 09:18:15;;;;;;;6.82;4.45;;;23.60;52.10;;;;;;5070787;28;20052;-67
2023/06/16 09:20:41;;;;;;;12.00;5.05;;;23.60;52.20;;;;;;5072749;28;20499;-66
2023/06/16 09:23:08;;;;;;;7.15;3.97;;;23.60;52.20;;;;;;5072254;28;20499;-66
2023/06/16 09:25:34;;;;;;;8.30;4.60;;;23.60;52.20;;;;;;5070903;28;20044;-71
2023/06/16 09:28:08;;;;;;;5.60;3.92;;;23.60;52.10;;;;;;5071031;28;20458;-68
2023/06/16 09:30:34;;;;;;;10.20;4.00;;;23.70;52.00;;;;;;5055939;28;20048;-67
2023/06/16 09:33:00;;;;;;;6.15;3.75;;;23.80;51.80;;;;;;5071669;28;20531;-72
2023/06/16 09:35:27;;;;;;;7.32;3.97;;;23.90;51.70;;;;;;5072669;28;20044;-70
2023/06/16 09:37:57;;;;;;;8.90;4.30;;;23.90;52.50;;;;;;5072663;28;20040;-72
2023/06/16 09:40:27;;;;;;;9.38;4.57;;;23.90;51.60;;;;;;5070464;28;20059;-76
2023/06/16 09:42:53;;;;;;;7.50;4.63;;;23.90;51.30;;;;;;5070482;28;20487;-69
2023/06/16 09:45:20;;;;;;;8.70;5.03;;;23.90;51.20;;;;;;5061455;28;20040;-71
2023/06/16 09:47:50;;;;;;;8.73;5.68;;;23.90;51.10;;;;;;5056260;28;20080;-74
2023/06/16 09:50:16;;;;;;;7.03;5.55;;;23.90;51.10;;;;;;5069405;28;20036;-73
2023/06/16 09:52:46;;;;;;;6.93;5.50;;;23.90;51.10;;;;;;5070902;28;20097;-72
2023/06/16 09:55:12;;;;;;;8.48;6.25;;;23.80;50.90;;;;;;5076879;28;20093;-73
2023/06/16 09:57:39;;;;;;;8.25;6.22;;;23.80;50.70;;;;;;5071877;28;20068;-73
2023/06/16 10:00:13;;;;;;;8.35;6.38;;;23.80;50.70;;;;;;5067103;28;20037;-73
2023/06/16 10:02:41;;;;;;;8.23;5.90;;;23.80;50.70;;;;;;5068666;28;20476;-72
2023/06/16 10:05:09;;;;;;;10.60;6.03;;;23.80;50.70;;;;;;5080933;28;20052;-73
2023/06/16 10:07:38;;;;;;;8.23;6.18;;;23.80;50.60;;;;;;5074079;28;20044;-73
2023/06/16 10:10:04;;;;;;;7.93;5.70;;;23.80;50.60;;;;;;5074805;28;20044;-72
2023/06/16 10:12:32;;;;;;;6.95;5.68;;;23.80;50.50;;;;;;5057665;28;20040;-75
2023/06/16 10:14:57;;;;;;;8.60;5.70;;;23.80;50.40;;;;;;5073331;28;20090;-72
2023/06/16 10:17:23;;;;;;;6.70;5.25;;;23.80;50.40;;;;;;5057319;28;20041;-72
2023/06/16 10:19:50;;;;;;;7.22;5.40;;;23.80;50.50;;;;;;5058338;28;20040;-72
2023/06/16 10:22:16;;;;;;;7.85;5.60;;;23.90;50.60;;;;;;5073855;28;20377;-74
2023/06/16 10:24:41;;;;;;;8.43;6.00;;;23.80;50.60;;;;;;5074461;28;20051;-74
2023/06/16 10:27:08;;;;;;;9.15;6.00;;;23.80;50.80;;;;;;5073329;28;20040;-71
2023/06/16 10:29:33;;;;;;;7.78;5.10;;;23.90;50.90;;;;;;5059660;28;20044;-75
2023/06/16 10:32:06;;;;;;;6.55;5.50;;;23.90;50.70;;;;;;5075458;28;20146;-78
2023/06/16 10:34:34;;;;;;;8.13;5.30;;;23.90;50.70;;;;;;5077142;28;20044;-79
2023/06/16 10:37:00;;;;;;;7.53;5.30;;;23.90;50.50;;;;;;5076250;28;20040;-76
2023/06/16 10:39:26;;;;;;;6.53;5.13;;;23.90;50.30;;;;;;5076462;28;20053;-73
2023/06/16 10:41:54;;;;;;;8.85;4.97;;;23.90;50.10;;;;;;5073123;28;20036;-75
2023/06/16 10:44:22;;;;;;;7.20;5.05;;;23.90;49.80;;;;;;5074766;28;20097;-75
2023/06/16 10:47:13;;;;;;;9.57;4.90;;;23.90;49.60;;;;;;5075613;28;20430;-74
2023/06/16 10:50:03;;;;;;;6.65;4.57;;;23.90;49.30;;;;;;5073208;28;20427;-75
2023/06/16 10:52:28;;;;;;;5.97;4.68;;;23.90;49.00;;;;;;5075333;28;20476;-75
2023/06/16 10:54:55;;;;;;;6.03;4.55;;;24.00;48.90;;;;;;5074144;28;20055;-73
2023/06/16 10:57:21;;;;;;;7.55;4.35;;;23.90;48.50;;;;;;5074336;28;20614;-74
2023/06/16 11:00:12;;;;;;;10.65;4.65;;;24.00;48.30;;;;;;5087892;28;20052;-78
2023/06/16 11:02:46;;;;;;;6.97;4.22;;;23.90;47.90;;;;;;5095685;28;20143;-79
2023/06/16 11:05:12;;;;;;;6.53;4.40;;;23.90;47.80;;;;;;5075894;28;20082;-78
2023/06/16 11:07:48;;;;;;;8.65;4.30;;;24.00;47.80;;;;;;5075890;28;20484;-77
2023/06/16 11:10:18;;;;;;;7.30;4.03;;;24.00;47.50;;;;;;5058017;28;20041;-71
2023/06/16 11:12:47;;;;;;;7.15;4.40;;;23.90;46.70;;;;;;5073420;28;20045;-73
2023/06/16 11:15:13;;;;;;;7.70;4.13;;;24.00;46.40;;;;;;5071140;28;20467;-73
2023/06/16 11:17:39;;;;;;;6.20;3.80;;;24.00;46.40;;;;;;5074247;28;20036;-72
2023/06/16 11:20:06;;;;;;;5.30;4.15;;;24.00;46.40;;;;;;5072923;28;20499;-71
2023/06/16 11:22:36;;;;;;;6.43;4.20;;;24.00;46.60;;;;;;5075051;28;20392;-71
2023/06/16 11:25:03;;;;;;;5.15;3.55;;;24.00;46.60;;;;;;5073568;28;20052;-72
2023/06/16 11:27:29;;;;;;;5.90;4.00;;;24.00;46.70;;;;;;5057059;28;20114;-71
2023/06/16 11:29:56;;;;;;;4.93;3.88;;;24.00;46.70;;;;;;5072329;28;20048;-74
2023/06/16 11:32:32;;;;;;;5.28;4.28;;;24.00;46.70;;;;;;5072394;28;20385;-77
2023/06/16 11:34:58;;;;;;;5.90;3.97;;;24.00;46.70;;;;;;5070144;28;20063;-77
2023/06/16 11:37:50;;;;;;;5.22;3.83;;;24.00;46.90;;;;;;5070424;28;20395;-70
2023/06/16 11:40:26;;;;;;;4.10;3.05;;;24.10;47.10;;;;;;5070939;28;20052;-74
2023/06/16 11:42:56;;;;;;;5.55;3.63;;;24.00;47.00;;;;;;5073942;28;20385;-75
2023/06/16 11:45:28;;;;;;;5.25;3.58;;;24.10;47.00;;;;;;5071457;28;20074;-74
2023/06/16 11:47:59;;;;;;;4.93;3.70;;;24.10;47.00;;;;;;5055361;28;20032;-73
2023/06/16 11:50:24;;;;;;;5.68;3.75;;;24.10;47.00;;;;;;5078830;28;20040;-72
2023/06/16 11:52:50;;;;;;;5.75;4.00;;;24.10;46.90;;;;;;5072091;28;20067;-72
2023/06/16 11:55:16;;;;;;;5.15;3.60;;;24.10;46.80;;;;;;5072191;28;20821;-72
2023/06/16 11:57:42;;;;;;;5.15;3.65;;;24.10;46.70;;;;;;5073797;28;20041;-73
2023/06/16 12:00:09;;;;;;;6.13;3.33;;;24.10;46.70;;;;;;5072319;28;20662;-72
2023/06/16 12:02:37;;;;;;;6.82;3.83;;;24.10;46.60;;;;;;5073698;28;20100;-74
2023/06/16 12:05:15;;;;;;;4.82;3.95;;;24.10;46.60;;;;;;5069636;28;20117;-75
2023/06/16 12:07:41;;;;;;;;;;;24.10;46.70;;;;;;5078112;28;20049;-75
2023/06/16 12:10:08;;;;;;;5.38;3.83;;;24.10;46.60;;;;;;5071927;28;20364;-72
2023/06/16 12:12:33;;;;;;;4.53;3.17;;;24.10;46.60;;;;;;5072070;28;20055;-73
2023/06/16 12:15:03;;;;;;;4.97;3.33;;;24.20;46.60;;;;;;5062540;28;20037;-71
2023/06/16 12:17:29;;;;;;;4.85;3.30;;;24.20;46.20;;;;;;5067866;28;20526;-72
2023/06/16 12:19:55;;;;;;;5.53;3.30;;;24.10;46.10;;;;;;5062147;28;20045;-71
2023/06/16 12:22:21;;;;;;;6.35;3.47;;;24.20;46.10;;;;;;5071360;28;20049;-71
2023/06/16 12:24:49;;;;;;;6.28;2.75;;;24.20;46.10;;;;;;5072822;28;20047;-72
2023/06/16 12:27:23;;;;;;;5.03;3.03;;;24.20;46.10;;;;;;5069677;28;20101;-73
2023/06/16 12:29:55;;;;;;;6.35;3.20;;;24.20;46.00;;;;;;5070854;28;21293;-72
2023/06/16 12:32:21;;;;;;;7.13;3.60;;;24.20;46.10;;;;;;5070629;28;20049;-74
2023/06/16 12:34:46;;;;;;;4.68;2.95;;;24.20;46.10;;;;;;5054623;28;20036;-73
2023/06/16 12:37:13;;;;;;;5.90;3.17;;;24.20;46.10;;;;;;5037248;28;20040;-74
2023/06/16 12:39:40;;;;;;;5.30;3.20;;;24.20;46.10;;;;;;5071542;28;20059;-71
2023/06/16 12:42:07;;;;;;;6.23;3.67;;;24.30;46.20;;;;;;5072127;28;20049;-61
2023/06/16 12:44:45;;;;;;;5.20;3.55;;;24.30;46.30;;;;;;5073042;28;20044;-67